VIA003 SVMI-MDSD
Flight info
| Callsign | VIA003 |
|---|---|
| Flight time | 1h 14m |
| Altitude | 36000 |
| Route | REKON3 REKON A554 KABON/N0491F340 UL216 AGMEX/N0487F360 UL216 POKAK UT20 KARIB KARIB2H |
| Aircraft | MD11/H-SDE1E2E3FGHIJ2J3J4J5M1RWXYZ/LB1D1 |
Departure
| Time | 2026-05-01 14:08 |
|---|---|
| Airport | Maiquetía Simón Bolívar International Airport (SVMI) |
Arrival
| Time | 2026-05-01 15:23 |
|---|---|
| Airport | Las Américas International Airport (MDSD) |
| Time | Latitude | Longitude | Altitude | Speed | Heading |
|---|---|---|---|---|---|
| 2026-05-01 13:47 | 10.59818 | -67.00977 | 302 ft | 0 kts | 177° |
| 2026-05-01 13:57 | 10.59830 | -67.00977 | 302 ft | 3 kts | 177° |
| 2026-05-01 13:58 | 10.59854 | -67.00979 | 302 ft | 3 kts | 176° |
| 2026-05-01 13:58 | 10.59864 | -67.00980 | 302 ft | 0 kts | 175° |
| 2026-05-01 14:00 | 10.59877 | -67.00980 | 301 ft | 6 kts | 185° |
| 2026-05-01 14:00 | 10.59902 | -67.00957 | 302 ft | 0 kts | 274° |
| 2026-05-01 14:00 | 10.59902 | -67.00959 | 302 ft | 1 kts | 274° |
| 2026-05-01 14:00 | 10.59904 | -67.01000 | 301 ft | 11 kts | 271° |
| 2026-05-01 14:01 | 10.59898 | -67.01119 | 297 ft | 17 kts | 266° |
| 2026-05-01 14:01 | 10.59912 | -67.01227 | 293 ft | 14 kts | 318° |
| 2026-05-01 14:01 | 10.60018 | -67.01251 | 292 ft | 16 kts | 358° |
| 2026-05-01 14:01 | 10.60090 | -67.01253 | 292 ft | 0 kts | 359° |
| 2026-05-01 14:06 | 10.60096 | -67.01253 | 292 ft | 2 kts | 359° |
| 2026-05-01 14:07 | 10.60134 | -67.01254 | 292 ft | 7 kts | 359° |
| 2026-05-01 14:07 | 10.60189 | -67.01242 | 293 ft | 7 kts | 43° |
| 2026-05-01 14:07 | 10.60211 | -67.01186 | 295 ft | 9 kts | 84° |
| 2026-05-01 14:08 | 10.60243 | -67.00243 | 309 ft | 143 kts | 88° |
| 2026-05-01 14:08 | 10.60279 | -66.99046 | 495 ft | 184 kts | 89° |
| 2026-05-01 14:08 | 10.60318 | -66.97735 | 1145 ft | 187 kts | 86° |
| 2026-05-01 14:08 | 10.60843 | -66.96486 | 1605 ft | 206 kts | 47° |
| 2026-05-01 14:09 | 10.62105 | -66.95752 | 2249 ft | 227 kts | 17° |
| 2026-05-01 14:09 | 10.63780 | -66.95789 | 2726 ft | 256 kts | 346° |
| 2026-05-01 14:09 | 10.65389 | -66.96731 | 3163 ft | 275 kts | 315° |
| 2026-05-01 14:09 | 10.66490 | -66.98321 | 3562 ft | 276 kts | 302° |
| 2026-05-01 14:10 | 10.67675 | -66.99861 | 4064 ft | 279 kts | 318° |
| 2026-05-01 14:10 | 10.69228 | -67.01047 | 4570 ft | 280 kts | 331° |
| 2026-05-01 14:10 | 10.70984 | -67.01910 | 5040 ft | 281 kts | 340° |
| 2026-05-01 14:10 | 10.72852 | -67.02575 | 5507 ft | 282 kts | 344° |
| 2026-05-01 14:11 | 10.74731 | -67.03141 | 5982 ft | 283 kts | 345° |
| 2026-05-01 14:11 | 10.78539 | -67.04261 | 6946 ft | 287 kts | 344° |
| 2026-05-01 14:11 | 10.80459 | -67.04856 | 7423 ft | 289 kts | 343° |
| 2026-05-01 14:12 | 10.82392 | -67.05468 | 7912 ft | 292 kts | 343° |
| 2026-05-01 14:12 | 10.84371 | -67.06100 | 8422 ft | 295 kts | 343° |
| 2026-05-01 14:12 | 10.86334 | -67.06728 | 8900 ft | 297 kts | 343° |
| 2026-05-01 14:12 | 10.88316 | -67.07359 | 9384 ft | 300 kts | 343° |
| 2026-05-01 14:13 | 10.90312 | -67.08016 | 9880 ft | 302 kts | 342° |
| 2026-05-01 14:13 | 10.91648 | -67.08478 | 10216 ft | 308 kts | 341° |
| 2026-05-01 14:13 | 10.94484 | -67.09476 | 10892 ft | 339 kts | 341° |
| 2026-05-01 14:13 | 10.96817 | -67.10294 | 11386 ft | 364 kts | 341° |
| 2026-05-01 14:14 | 10.99268 | -67.11136 | 11861 ft | 387 kts | 342° |
| 2026-05-01 14:14 | 11.01917 | -67.12035 | 12335 ft | 409 kts | 341° |
| 2026-05-01 14:14 | 11.04675 | -67.12983 | 12794 ft | 423 kts | 341° |
| 2026-05-01 14:14 | 11.07476 | -67.13956 | 13256 ft | 432 kts | 341° |
| 2026-05-01 14:15 | 11.10366 | -67.14957 | 13733 ft | 437 kts | 341° |
| 2026-05-01 14:15 | 11.13268 | -67.15949 | 14205 ft | 439 kts | 341° |
| 2026-05-01 14:15 | 11.16193 | -67.16945 | 14680 ft | 441 kts | 341° |
| 2026-05-01 14:15 | 11.19115 | -67.17947 | 15153 ft | 443 kts | 341° |
| 2026-05-01 14:16 | 11.22027 | -67.18952 | 15623 ft | 446 kts | 341° |
| 2026-05-01 14:16 | 11.24998 | -67.19974 | 16103 ft | 448 kts | 341° |
| 2026-05-01 14:16 | 11.27985 | -67.20992 | 16576 ft | 451 kts | 341° |
| 2026-05-01 14:16 | 11.30947 | -67.22003 | 17041 ft | 452 kts | 341° |
| 2026-05-01 14:17 | 11.33962 | -67.23004 | 17511 ft | 454 kts | 342° |
| 2026-05-01 14:17 | 11.36973 | -67.23946 | 17978 ft | 457 kts | 343° |
| 2026-05-01 14:17 | 11.40061 | -67.24908 | 18455 ft | 460 kts | 342° |
| 2026-05-01 14:17 | 11.43116 | -67.25884 | 18924 ft | 463 kts | 342° |
| 2026-05-01 14:18 | 11.46205 | -67.26884 | 19400 ft | 466 kts | 342° |
| 2026-05-01 14:18 | 11.49286 | -67.27883 | 19866 ft | 469 kts | 342° |
| 2026-05-01 14:18 | 11.52415 | -67.28890 | 20340 ft | 472 kts | 342° |
| 2026-05-01 14:18 | 11.54525 | -67.29564 | 20655 ft | 474 kts | 342° |
| 2026-05-01 14:19 | 11.58736 | -67.30911 | 21285 ft | 478 kts | 342° |
| 2026-05-01 14:19 | 11.61927 | -67.31940 | 21755 ft | 481 kts | 342° |
| 2026-05-01 14:19 | 11.65146 | -67.32975 | 22478 ft | 485 kts | 342° |
| 2026-05-01 14:19 | 11.68397 | -67.34013 | 23228 ft | 490 kts | 342° |
| 2026-05-01 14:20 | 11.71661 | -67.35056 | 23933 ft | 496 kts | 342° |
| 2026-05-01 14:20 | 11.78295 | -67.37193 | 25344 ft | 505 kts | 341° |
| 2026-05-01 14:20 | 11.81696 | -67.38282 | 26035 ft | 510 kts | 341° |
| 2026-05-01 14:21 | 11.85102 | -67.39367 | 26820 ft | 512 kts | 341° |
| 2026-05-01 14:21 | 11.88474 | -67.40448 | 27726 ft | 511 kts | 341° |
| 2026-05-01 14:21 | 11.91857 | -67.41538 | 28707 ft | 508 kts | 340° |
| 2026-05-01 14:22 | 11.98580 | -67.43694 | 30740 ft | 502 kts | 340° |
| 2026-05-01 14:22 | 12.01886 | -67.44750 | 31715 ft | 498 kts | 339° |
| 2026-05-01 14:22 | 12.05176 | -67.45823 | 32650 ft | 494 kts | 339° |
| 2026-05-01 14:22 | 12.08468 | -67.46934 | 33596 ft | 491 kts | 338° |
| 2026-05-01 14:23 | 12.11753 | -67.48048 | 34491 ft | 487 kts | 338° |
| 2026-05-01 14:23 | 12.14935 | -67.49116 | 35326 ft | 483 kts | 338° |
| 2026-05-01 14:23 | 12.18129 | -67.50171 | 35864 ft | 480 kts | 339° |
| 2026-05-01 14:23 | 12.21320 | -67.51224 | 35835 ft | 476 kts | 338° |
| 2026-05-01 14:24 | 12.27605 | -67.53328 | 35892 ft | 471 kts | 338° |
| 2026-05-01 14:24 | 12.33821 | -67.55386 | 35922 ft | 473 kts | 338° |
| 2026-05-01 14:25 | 12.40142 | -67.57495 | 35933 ft | 475 kts | 338° |
| 2026-05-01 14:25 | 12.46422 | -67.59578 | 35935 ft | 475 kts | 338° |
| 2026-05-01 14:26 | 12.55894 | -67.62736 | 35944 ft | 474 kts | 338° |
| 2026-05-01 14:27 | 12.62210 | -67.64823 | 35948 ft | 474 kts | 338° |
| 2026-05-01 14:27 | 12.68502 | -67.66925 | 35955 ft | 474 kts | 338° |
| 2026-05-01 14:28 | 12.77907 | -67.70065 | 35954 ft | 474 kts | 337° |
| 2026-05-01 14:28 | 12.84175 | -67.72246 | 35953 ft | 474 kts | 338° |
| 2026-05-01 14:29 | 12.90434 | -67.74359 | 35951 ft | 474 kts | 338° |
| 2026-05-01 14:30 | 13.03011 | -67.78642 | 35949 ft | 474 kts | 338° |
| 2026-05-01 14:31 | 13.12398 | -67.81863 | 35944 ft | 474 kts | 337° |
| 2026-05-01 14:31 | 13.18677 | -67.84050 | 35940 ft | 474 kts | 338° |
| 2026-05-01 14:32 | 13.24921 | -67.86185 | 35941 ft | 473 kts | 337° |
| 2026-05-01 14:32 | 13.31195 | -67.88365 | 35938 ft | 473 kts | 337° |
| 2026-05-01 14:33 | 13.37436 | -67.90562 | 35938 ft | 473 kts | 337° |
| 2026-05-01 14:33 | 13.43681 | -67.92710 | 35933 ft | 473 kts | 337° |
| 2026-05-01 14:34 | 13.49945 | -67.94864 | 35939 ft | 473 kts | 337° |
| 2026-05-01 14:34 | 13.56232 | -67.97038 | 35939 ft | 474 kts | 338° |
| 2026-05-01 14:35 | 13.62465 | -67.99173 | 35939 ft | 473 kts | 337° |
| 2026-05-01 14:35 | 13.68717 | -68.01335 | 35942 ft | 473 kts | 337° |
| 2026-05-01 14:36 | 13.75007 | -68.03490 | 35940 ft | 473 kts | 337° |
| 2026-05-01 14:36 | 13.81242 | -68.05648 | 35944 ft | 473 kts | 337° |
| 2026-05-01 14:37 | 13.87528 | -68.07797 | 35941 ft | 473 kts | 337° |
| 2026-05-01 14:37 | 13.93790 | -68.09965 | 35946 ft | 473 kts | 337° |
| 2026-05-01 14:38 | 14.00061 | -68.12112 | 35944 ft | 473 kts | 337° |
| 2026-05-01 14:38 | 14.06317 | -68.14271 | 35943 ft | 472 kts | 337° |
| 2026-05-01 14:39 | 14.12569 | -68.16421 | 35946 ft | 472 kts | 337° |
| 2026-05-01 14:39 | 14.18837 | -68.18445 | 35944 ft | 474 kts | 340° |
| 2026-05-01 14:40 | 14.25278 | -68.19998 | 35953 ft | 478 kts | 344° |
| 2026-05-01 14:40 | 14.31843 | -68.21339 | 35954 ft | 478 kts | 344° |
| 2026-05-01 14:41 | 14.38366 | -68.22715 | 35953 ft | 477 kts | 344° |
| 2026-05-01 14:41 | 14.44913 | -68.24096 | 35954 ft | 478 kts | 343° |
| 2026-05-01 14:42 | 14.51425 | -68.25457 | 35955 ft | 478 kts | 344° |
| 2026-05-01 14:42 | 14.57975 | -68.26823 | 35953 ft | 478 kts | 344° |
| 2026-05-01 14:43 | 14.64542 | -68.28198 | 35955 ft | 478 kts | 344° |
| 2026-05-01 14:43 | 14.71048 | -68.29549 | 35957 ft | 479 kts | 343° |
| 2026-05-01 14:44 | 14.77620 | -68.30946 | 35961 ft | 479 kts | 343° |
| 2026-05-01 14:44 | 14.87429 | -68.33009 | 35957 ft | 479 kts | 344° |
| 2026-05-01 14:45 | 14.97258 | -68.35041 | 35962 ft | 478 kts | 343° |
| 2026-05-01 14:46 | 15.03797 | -68.36375 | 35958 ft | 478 kts | 344° |
| 2026-05-01 14:46 | 15.13640 | -68.38416 | 35965 ft | 479 kts | 344° |
| 2026-05-01 14:47 | 15.20216 | -68.39751 | 35971 ft | 481 kts | 344° |
| 2026-05-01 14:48 | 15.30047 | -68.41892 | 35970 ft | 479 kts | 343° |
| 2026-05-01 14:48 | 15.39843 | -68.43950 | 35973 ft | 479 kts | 343° |
| 2026-05-01 14:49 | 15.52956 | -68.46722 | 35971 ft | 480 kts | 343° |
| 2026-05-01 14:50 | 15.66081 | -68.49501 | 35975 ft | 481 kts | 343° |
| 2026-05-01 14:51 | 15.75962 | -68.51601 | 35970 ft | 480 kts | 343° |
| 2026-05-01 14:52 | 15.85772 | -68.53667 | 35976 ft | 481 kts | 343° |
| 2026-05-01 14:53 | 15.95671 | -68.55759 | 35968 ft | 480 kts | 342° |
| 2026-05-01 14:53 | 15.98885 | -68.56585 | 35731 ft | 474 kts | 339° |
| 2026-05-01 14:53 | 16.01990 | -68.57616 | 34901 ft | 472 kts | 334° |
| 2026-05-01 14:53 | 16.05058 | -68.58883 | 34254 ft | 467 kts | 332° |
| 2026-05-01 14:54 | 16.08015 | -68.60218 | 33619 ft | 463 kts | 331° |
| 2026-05-01 14:54 | 16.10957 | -68.61575 | 33097 ft | 457 kts | 331° |
| 2026-05-01 14:54 | 16.13843 | -68.62885 | 32789 ft | 454 kts | 332° |
| 2026-05-01 14:54 | 16.16748 | -68.64185 | 32467 ft | 453 kts | 332° |
| 2026-05-01 14:55 | 16.19682 | -68.65493 | 31978 ft | 454 kts | 331° |
| 2026-05-01 14:55 | 16.22553 | -68.66769 | 31433 ft | 451 kts | 332° |
| 2026-05-01 14:55 | 16.25449 | -68.68058 | 30894 ft | 447 kts | 331° |
| 2026-05-01 14:55 | 16.28276 | -68.69328 | 30379 ft | 443 kts | 331° |
| 2026-05-01 14:56 | 16.31110 | -68.70606 | 29874 ft | 438 kts | 331° |
| 2026-05-01 14:56 | 16.33888 | -68.71851 | 29421 ft | 432 kts | 332° |
| 2026-05-01 14:56 | 16.36616 | -68.73064 | 29085 ft | 426 kts | 332° |
| 2026-05-01 14:57 | 16.42008 | -68.75491 | 28922 ft | 422 kts | 331° |
| 2026-05-01 14:57 | 16.47479 | -68.77934 | 28352 ft | 426 kts | 332° |
| 2026-05-01 14:57 | 16.50174 | -68.79135 | 27907 ft | 425 kts | 332° |
| 2026-05-01 14:58 | 16.52896 | -68.80360 | 27481 ft | 420 kts | 332° |
| 2026-05-01 14:58 | 16.55566 | -68.81567 | 27132 ft | 415 kts | 332° |
| 2026-05-01 14:58 | 16.58225 | -68.82759 | 26890 ft | 413 kts | 332° |
| 2026-05-01 14:58 | 16.60869 | -68.83935 | 26634 ft | 413 kts | 332° |
| 2026-05-01 14:59 | 16.63489 | -68.85107 | 26426 ft | 413 kts | 332° |
| 2026-05-01 14:59 | 16.66139 | -68.86302 | 26097 ft | 413 kts | 332° |
| 2026-05-01 14:59 | 16.68797 | -68.87497 | 25757 ft | 413 kts | 332° |
| 2026-05-01 14:59 | 16.71434 | -68.88673 | 25373 ft | 410 kts | 332° |
| 2026-05-01 15:00 | 16.76654 | -68.91010 | 24716 ft | 406 kts | 332° |
| 2026-05-01 15:00 | 16.79252 | -68.92181 | 24386 ft | 404 kts | 332° |
| 2026-05-01 15:00 | 16.81806 | -68.93324 | 24122 ft | 403 kts | 332° |
| 2026-05-01 15:01 | 16.84389 | -68.94482 | 23821 ft | 403 kts | 332° |
| 2026-05-01 15:01 | 16.86980 | -68.95657 | 23499 ft | 402 kts | 332° |
| 2026-05-01 15:01 | 16.89514 | -68.96809 | 23126 ft | 399 kts | 332° |
| 2026-05-01 15:01 | 16.92076 | -68.97971 | 22862 ft | 396 kts | 332° |
| 2026-05-01 15:02 | 16.94613 | -68.99116 | 22618 ft | 396 kts | 332° |
| 2026-05-01 15:02 | 16.96290 | -68.99870 | 22423 ft | 396 kts | 332° |
| 2026-05-01 15:02 | 16.99659 | -69.01395 | 21984 ft | 393 kts | 332° |
| 2026-05-01 15:02 | 17.02167 | -69.02533 | 21716 ft | 391 kts | 332° |
| 2026-05-01 15:03 | 17.04643 | -69.03654 | 21406 ft | 388 kts | 332° |
| 2026-05-01 15:03 | 17.07132 | -69.04776 | 21132 ft | 384 kts | 332° |
| 2026-05-01 15:03 | 17.09569 | -69.05877 | 20912 ft | 383 kts | 332° |
| 2026-05-01 15:03 | 17.12033 | -69.06992 | 20615 ft | 382 kts | 332° |
| 2026-05-01 15:04 | 17.14454 | -69.08090 | 20346 ft | 379 kts | 332° |
| 2026-05-01 15:04 | 17.16862 | -69.09178 | 20019 ft | 376 kts | 332° |
| 2026-05-01 15:04 | 17.19278 | -69.10268 | 19656 ft | 373 kts | 333° |
| 2026-05-01 15:04 | 17.21651 | -69.11340 | 19279 ft | 371 kts | 333° |
| 2026-05-01 15:05 | 17.24006 | -69.12407 | 18890 ft | 370 kts | 333° |
| 2026-05-01 15:05 | 17.26364 | -69.13474 | 18490 ft | 367 kts | 333° |
| 2026-05-01 15:05 | 17.28727 | -69.14540 | 18089 ft | 365 kts | 333° |
| 2026-05-01 15:05 | 17.31049 | -69.15592 | 17684 ft | 362 kts | 333° |
| 2026-05-01 15:06 | 17.33352 | -69.16634 | 17297 ft | 359 kts | 333° |
| 2026-05-01 15:06 | 17.35619 | -69.17658 | 16914 ft | 356 kts | 333° |
| 2026-05-01 15:06 | 17.37897 | -69.18687 | 16524 ft | 354 kts | 334° |
| 2026-05-01 15:06 | 17.40140 | -69.19702 | 16145 ft | 352 kts | 334° |
| 2026-05-01 15:07 | 17.42399 | -69.20724 | 15757 ft | 350 kts | 334° |
| 2026-05-01 15:07 | 17.44653 | -69.21740 | 15367 ft | 349 kts | 334° |
| 2026-05-01 15:07 | 17.46877 | -69.22745 | 14977 ft | 348 kts | 335° |
| 2026-05-01 15:07 | 17.49101 | -69.23754 | 14588 ft | 347 kts | 335° |
| 2026-05-01 15:08 | 17.51297 | -69.24747 | 14201 ft | 346 kts | 335° |
| 2026-05-01 15:08 | 17.53516 | -69.25746 | 13810 ft | 344 kts | 336° |
| 2026-05-01 15:08 | 17.55718 | -69.26742 | 13415 ft | 343 kts | 336° |
| 2026-05-01 15:08 | 17.57920 | -69.27740 | 13020 ft | 341 kts | 336° |
| 2026-05-01 15:09 | 17.60094 | -69.28725 | 12641 ft | 339 kts | 337° |
| 2026-05-01 15:09 | 17.62265 | -69.29711 | 12266 ft | 337 kts | 337° |
| 2026-05-01 15:09 | 17.64405 | -69.30685 | 11908 ft | 335 kts | 337° |
| 2026-05-01 15:09 | 17.66573 | -69.31629 | 11580 ft | 332 kts | 339° |
| 2026-05-01 15:10 | 17.68743 | -69.32478 | 11129 ft | 334 kts | 341° |
| 2026-05-01 15:10 | 17.73149 | -69.34042 | 10213 ft | 337 kts | 342° |
| 2026-05-01 15:10 | 17.75346 | -69.34827 | 10060 ft | 327 kts | 341° |
| 2026-05-01 15:11 | 17.77488 | -69.35605 | 10010 ft | 314 kts | 341° |
| 2026-05-01 15:11 | 17.81508 | -69.37071 | 9997 ft | 298 kts | 341° |
| 2026-05-01 15:11 | 17.83459 | -69.37779 | 9962 ft | 293 kts | 342° |
| 2026-05-01 15:12 | 17.85395 | -69.38481 | 9546 ft | 297 kts | 342° |
| 2026-05-01 15:12 | 17.89270 | -69.39882 | 8718 ft | 292 kts | 342° |
| 2026-05-01 15:12 | 17.91196 | -69.40578 | 8274 ft | 289 kts | 342° |
| 2026-05-01 15:13 | 17.96497 | -69.42578 | 7578 ft | 249 kts | 338° |
| 2026-05-01 15:14 | 17.99520 | -69.44281 | 7044 ft | 243 kts | 330° |
| 2026-05-01 15:14 | 18.00955 | -69.45210 | 6832 ft | 244 kts | 330° |
| 2026-05-01 15:14 | 18.03873 | -69.47068 | 6317 ft | 244 kts | 332° |
| 2026-05-01 15:15 | 18.06788 | -69.48845 | 5802 ft | 235 kts | 332° |
| 2026-05-01 15:15 | 18.09512 | -69.50498 | 5412 ft | 215 kts | 332° |
| 2026-05-01 15:16 | 18.12041 | -69.52055 | 5152 ft | 210 kts | 332° |
| 2026-05-01 15:16 | 18.14592 | -69.53629 | 4687 ft | 211 kts | 332° |
| 2026-05-01 15:17 | 18.17125 | -69.55187 | 4247 ft | 210 kts | 332° |
| 2026-05-01 15:18 | 18.20887 | -69.57500 | 3583 ft | 207 kts | 332° |
| 2026-05-01 15:18 | 18.22132 | -69.58266 | 3366 ft | 206 kts | 332° |
| 2026-05-01 15:19 | 18.25829 | -69.60497 | 2750 ft | 204 kts | 337° |
| 2026-05-01 15:19 | 18.28440 | -69.61565 | 2204 ft | 197 kts | 345° |
| 2026-05-01 15:19 | 18.29761 | -69.62014 | 2025 ft | 201 kts | 345° |
| 2026-05-01 15:20 | 18.32384 | -69.62940 | 1408 ft | 192 kts | 344° |
| 2026-05-01 15:20 | 18.33619 | -69.63395 | 1134 ft | 183 kts | 343° |
| 2026-05-01 15:20 | 18.34804 | -69.63837 | 896 ft | 178 kts | 343° |
| 2026-05-01 15:21 | 18.35940 | -69.64264 | 703 ft | 164 kts | 342° |
| 2026-05-01 15:21 | 18.36969 | -69.64651 | 699 ft | 153 kts | 344° |
| 2026-05-01 15:21 | 18.38033 | -69.65029 | 770 ft | 162 kts | 342° |
| 2026-05-01 15:21 | 18.39057 | -69.65456 | 452 ft | 155 kts | 338° |
| 2026-05-01 15:22 | 18.41114 | -69.66224 | 175 ft | 159 kts | 344° |
| 2026-05-01 15:22 | 18.42156 | -69.66599 | 78 ft | 160 kts | 342° |
| 2026-05-01 15:22 | 18.43117 | -69.66949 | 70 ft | 98 kts | 339° |
| 2026-05-01 15:23 | 18.43524 | -69.67098 | 67 ft | 36 kts | 341° |
| 2026-05-01 15:23 | 18.43636 | -69.67194 | 65 ft | 21 kts | 262° |
| 2026-05-01 15:23 | 18.43544 | -69.67325 | 63 ft | 24 kts | 223° |
| 2026-05-01 15:23 | 18.43451 | -69.67420 | 62 ft | 16 kts | 225° |
| 2026-05-01 15:24 | 18.43383 | -69.67497 | 61 ft | 10 kts | 227° |
| 2026-05-01 15:24 | 18.43360 | -69.67522 | 61 ft | 0 kts | 226° |
| 2026-05-01 15:24 | 18.43355 | -69.67527 | 61 ft | 2 kts | 225° |
| 2026-05-01 15:24 | 18.43340 | -69.67550 | 61 ft | 5 kts | 243° |
| 2026-05-01 15:25 | 18.43317 | -69.67593 | 61 ft | 8 kts | 233° |
| 2026-05-01 15:25 | 18.43276 | -69.67629 | 61 ft | 5 kts | 214° |
| 2026-05-01 15:25 | 18.43257 | -69.67643 | 61 ft | 2 kts | 213° |
| 2026-05-01 15:25 | 18.43251 | -69.67647 | 61 ft | 0 kts | 214° |